sensor_id;sensor_type;location;lat;lon;timestamp;temperature;humidity
34726;DHT22;20951;50.818;4.344;2022-09-27T00:01:47;10.40;99.90
34726;DHT22;20951;50.818;4.344;2022-09-27T00:04:13;10.40;99.90
34726;DHT22;20951;50.818;4.344;2022-09-27T00:06:39;10.60;99.90
34726;DHT22;20951;50.818;4.344;2022-09-27T00:09:08;10.50;99.90
34726;DHT22;20951;50.818;4.344;2022-09-27T00:11:37;10.40;99.90
34726;DHT22;20951;50.818;4.344;2022-09-27T00:14:04;10.50;99.90
34726;DHT22;20951;50.818;4.344;2022-09-27T00:16:36;10.60;99.90
34726;DHT22;20951;50.818;4.344;2022-09-27T00:19:10;10.50;99.90
34726;DHT22;20951;50.818;4.344;2022-09-27T00:21:36;10.50;99.90
34726;DHT22;20951;50.818;4.344;2022-09-27T00:24:02;10.50;99.90
34726;DHT22;20951;50.818;4.344;2022-09-27T00:26:31;10.50;99.90
34726;DHT22;20951;50.818;4.344;2022-09-27T00:28:57;10.40;99.90
34726;DHT22;20951;50.818;4.344;2022-09-27T00:31:28;10.30;99.90
34726;DHT22;20951;50.818;4.344;2022-09-27T00:33:55;10.30;99.90
34726;DHT22;20951;50.818;4.344;2022-09-27T00:36:22;10.30;99.90
34726;DHT22;20951;50.818;4.344;2022-09-27T00:38:49;10.30;99.90
34726;DHT22;20951;50.818;4.344;2022-09-27T00:41:18;10.30;99.90
34726;DHT22;20951;50.818;4.344;2022-09-27T00:52:24;10.10;99.90
34726;DHT22;20951;50.818;4.344;2022-09-27T00:54:57;10.10;99.90
34726;DHT22;20951;50.818;4.344;2022-09-27T00:57:23;10.10;99.90
34726;DHT22;20951;50.818;4.344;2022-09-27T01:00:03;10.20;99.90
34726;DHT22;20951;50.818;4.344;2022-09-27T01:02:30;10.20;99.90
34726;DHT22;20951;50.818;4.344;2022-09-27T01:04:56;10.20;99.90
34726;DHT22;20951;50.818;4.344;2022-09-27T01:07:22;10.10;99.90
34726;DHT22;20951;50.818;4.344;2022-09-27T01:09:48;10.10;99.90
34726;DHT22;20951;50.818;4.344;2022-09-27T01:29:09;10.20;99.90
34726;DHT22;20951;50.818;4.344;2022-09-27T01:34:16;10.20;99.90
34726;DHT22;20951;50.818;4.344;2022-09-27T01:36:58;10.20;99.90
34726;DHT22;20951;50.818;4.344;2022-09-27T01:43:00;10.40;99.90
34726;DHT22;20951;50.818;4.344;2022-09-27T01:45:37;10.40;99.90
34726;DHT22;20951;50.818;4.344;2022-09-27T01:48:17;10.50;99.90
34726;DHT22;20951;50.818;4.344;2022-09-27T01:51:05;10.30;99.90
34726;DHT22;20951;50.818;4.344;2022-09-27T01:53:40;10.20;99.90
34726;DHT22;20951;50.818;4.344;2022-09-27T01:56:13;10.10;99.90
34726;DHT22;20951;50.818;4.344;2022-09-27T01:58:49;10.10;99.90
34726;DHT22;20951;50.818;4.344;2022-09-27T02:01:18;10.10;99.90
34726;DHT22;20951;50.818;4.344;2022-09-27T02:03:49;10.10;99.90
34726;DHT22;20951;50.818;4.344;2022-09-27T02:06:35;10.00;99.90
34726;DHT22;20951;50.818;4.344;2022-09-27T02:09:12;10.00;99.90
34726;DHT22;20951;50.818;4.344;2022-09-27T02:11:43;10.00;99.90
34726;DHT22;20951;50.818;4.344;2022-09-27T02:14:56;10.20;99.90
34726;DHT22;20951;50.818;4.344;2022-09-27T02:20:00;10.10;99.90
34726;DHT22;20951;50.818;4.344;2022-09-27T02:22:43;10.20;99.90
34726;DHT22;20951;50.818;4.344;2022-09-27T02:30:18;10.20;99.90
34726;DHT22;20951;50.818;4.344;2022-09-27T02:32:44;10.20;99.90
34726;DHT22;20951;50.818;4.344;2022-09-27T02:35:26;10.30;99.90
34726;DHT22;20951;50.818;4.344;2022-09-27T02:37:54;10.30;99.90
34726;DHT22;20951;50.818;4.344;2022-09-27T02:40:21;10.30;99.90
34726;DHT22;20951;50.818;4.344;2022-09-27T02:42:48;10.30;99.90
34726;DHT22;20951;50.818;4.344;2022-09-27T02:45:15;10.30;99.90
34726;DHT22;20951;50.818;4.344;2022-09-27T02:50:36;10.20;99.90
34726;DHT22;20951;50.818;4.344;2022-09-27T02:53:25;10.10;99.90
34726;DHT22;20951;50.818;4.344;2022-09-27T03:03:52;10.00;99.90
34726;DHT22;20951;50.818;4.344;2022-09-27T03:06:21;10.20;99.90
34726;DHT22;20951;50.818;4.344;2022-09-27T03:08:48;10.00;99.90
34726;DHT22;20951;50.818;4.344;2022-09-27T03:11:15;10.10;99.90
34726;DHT22;20951;50.818;4.344;2022-09-27T03:13:42;10.20;99.90
34726;DHT22;20951;50.818;4.344;2022-09-27T03:16:09;10.10;99.90
34726;DHT22;20951;50.818;4.344;2022-09-27T03:18:35;10.10;99.90
34726;DHT22;20951;50.818;4.344;2022-09-27T03:21:01;10.10;99.90
34726;DHT22;20951;50.818;4.344;2022-09-27T03:23:27;10.20;99.90
34726;DHT22;20951;50.818;4.344;2022-09-27T03:25:53;10.30;99.90
34726;DHT22;20951;50.818;4.344;2022-09-27T03:28:19;10.30;99.90
34726;DHT22;20951;50.818;4.344;2022-09-27T03:30:46;10.30;99.90
34726;DHT22;20951;50.818;4.344;2022-09-27T03:33:12;10.20;99.90
34726;DHT22;20951;50.818;4.344;2022-09-27T03:35:38;10.30;99.90
34726;DHT22;20951;50.818;4.344;2022-09-27T03:38:06;10.20;99.90
34726;DHT22;20951;50.818;4.344;2022-09-27T03:40:32;10.00;99.90
34726;DHT22;20951;50.818;4.344;2022-09-27T03:42:58;10.10;99.90
34726;DHT22;20951;50.818;4.344;2022-09-27T03:45:24;10.10;99.90
34726;DHT22;20951;50.818;4.344;2022-09-27T03:47:50;10.30;99.90
34726;DHT22;20951;50.818;4.344;2022-09-27T03:50:16;10.20;99.90
34726;DHT22;20951;50.818;4.344;2022-09-27T03:52:43;10.10;99.90
34726;DHT22;20951;50.818;4.344;2022-09-27T03:55:10;10.20;99.90
34726;DHT22;20951;50.818;4.344;2022-09-27T03:57:36;10.30;99.90
34726;DHT22;20951;50.818;4.344;2022-09-27T04:00:04;10.40;99.90
34726;DHT22;20951;50.818;4.344;2022-09-27T04:02:31;10.30;99.90
34726;DHT22;20951;50.818;4.344;2022-09-27T04:04:57;10.30;99.90
34726;DHT22;20951;50.818;4.344;2022-09-27T04:07:23;10.40;99.90
34726;DHT22;20951;50.818;4.344;2022-09-27T04:09:49;10.40;99.90
34726;DHT22;20951;50.818;4.344;2022-09-27T04:12:15;10.30;99.90
34726;DHT22;20951;50.818;4.344;2022-09-27T04:14:41;10.40;99.90
34726;DHT22;20951;50.818;4.344;2022-09-27T04:17:07;10.50;99.90
34726;DHT22;20951;50.818;4.344;2022-09-27T04:19:33;10.40;99.90
34726;DHT22;20951;50.818;4.344;2022-09-27T04:21:59;10.60;99.90
34726;DHT22;20951;50.818;4.344;2022-09-27T04:24:25;10.60;99.90
34726;DHT22;20951;50.818;4.344;2022-09-27T04:26:51;10.50;99.90
34726;DHT22;20951;50.818;4.344;2022-09-27T04:29:18;10.60;99.90
34726;DHT22;20951;50.818;4.344;2022-09-27T04:31:44;10.60;99.90
34726;DHT22;20951;50.818;4.344;2022-09-27T04:34:10;10.70;99.90
34726;DHT22;20951;50.818;4.344;2022-09-27T04:36:36;10.60;99.90
34726;DHT22;20951;50.818;4.344;2022-09-27T04:39:05;10.50;99.90
34726;DHT22;20951;50.818;4.344;2022-09-27T04:41:31;10.50;99.90
34726;DHT22;20951;50.818;4.344;2022-09-27T04:43:58;10.40;99.90
34726;DHT22;20951;50.818;4.344;2022-09-27T04:46:27;10.40;99.90
34726;DHT22;20951;50.818;4.344;2022-09-27T04:49:00;10.40;99.90
34726;DHT22;20951;50.818;4.344;2022-09-27T04:51:26;10.40;99.90
34726;DHT22;20951;50.818;4.344;2022-09-27T04:53:52;10.30;99.90
34726;DHT22;20951;50.818;4.344;2022-09-27T04:56:20;10.20;99.90
34726;DHT22;20951;50.818;4.344;2022-09-27T04:58:46;10.20;99.90
34726;DHT22;20951;50.818;4.344;2022-09-27T05:01:12;10.10;99.90
34726;DHT22;20951;50.818;4.344;2022-09-27T05:03:38;10.10;99.90
34726;DHT22;20951;50.818;4.344;2022-09-27T05:06:04;10.20;99.90
34726;DHT22;20951;50.818;4.344;2022-09-27T05:08:30;10.20;99.90
34726;DHT22;20951;50.818;4.344;2022-09-27T05:10:56;10.00;99.90
34726;DHT22;20951;50.818;4.344;2022-09-27T05:13:22;9.90;99.90
34726;DHT22;20951;50.818;4.344;2022-09-27T05:15:48;10.00;99.90
34726;DHT22;20951;50.818;4.344;2022-09-27T05:18:15;10.10;99.90
34726;DHT22;20951;50.818;4.344;2022-09-27T05:20:42;10.10;99.90
34726;DHT22;20951;50.818;4.344;2022-09-27T05:23:09;10.10;99.90
34726;DHT22;20951;50.818;4.344;2022-09-27T05:25:35;10.00;99.90
34726;DHT22;20951;50.818;4.344;2022-09-27T05:28:02;10.00;99.90
34726;DHT22;20951;50.818;4.344;2022-09-27T05:30:28;10.00;99.90
34726;DHT22;20951;50.818;4.344;2022-09-27T05:32:54;9.90;99.90
34726;DHT22;20951;50.818;4.344;2022-09-27T05:35:20;9.80;99.90
34726;DHT22;20951;50.818;4.344;2022-09-27T05:37:57;9.80;99.90
34726;DHT22;20951;50.818;4.344;2022-09-27T05:40:23;9.90;99.90
34726;DHT22;20951;50.818;4.344;2022-09-27T05:42:53;10.00;99.90
34726;DHT22;20951;50.818;4.344;2022-09-27T05:45:21;10.10;99.90
34726;DHT22;20951;50.818;4.344;2022-09-27T05:47:55;10.10;99.90
34726;DHT22;20951;50.818;4.344;2022-09-27T05:50:23;10.10;99.90
34726;DHT22;20951;50.818;4.344;2022-09-27T05:52:53;10.00;99.90
34726;DHT22;20951;50.818;4.344;2022-09-27T05:55:22;10.00;99.90
34726;DHT22;20951;50.818;4.344;2022-09-27T05:58:02;10.00;99.90
34726;DHT22;20951;50.818;4.344;2022-09-27T06:00:32;10.00;99.90
34726;DHT22;20951;50.818;4.344;2022-09-27T06:03:03;10.00;99.90
34726;DHT22;20951;50.818;4.344;2022-09-27T06:05:36;10.00;99.90
34726;DHT22;20951;50.818;4.344;2022-09-27T06:08:10;9.90;99.90
34726;DHT22;20951;50.818;4.344;2022-09-27T06:10:38;10.00;99.90
34726;DHT22;20951;50.818;4.344;2022-09-27T06:13:11;10.10;99.90
34726;DHT22;20951;50.818;4.344;2022-09-27T06:15:44;10.00;99.90
34726;DHT22;20951;50.818;4.344;2022-09-27T06:18:14;9.90;99.90
34726;DHT22;20951;50.818;4.344;2022-09-27T06:20:44;9.90;99.90
34726;DHT22;20951;50.818;4.344;2022-09-27T06:23:15;9.90;99.90
34726;DHT22;20951;50.818;4.344;2022-09-27T06:25:44;10.00;99.90
34726;DHT22;20951;50.818;4.344;2022-09-27T06:28:14;10.10;99.90
34726;DHT22;20951;50.818;4.344;2022-09-27T06:30:47;10.00;99.90
34726;DHT22;20951;50.818;4.344;2022-09-27T06:33:17;10.10;99.90
34726;DHT22;20951;50.818;4.344;2022-09-27T06:35:47;10.10;99.90
34726;DHT22;20951;50.818;4.344;2022-09-27T06:38:17;10.20;99.90
34726;DHT22;20951;50.818;4.344;2022-09-27T06:40:48;10.10;99.90
34726;DHT22;20951;50.818;4.344;2022-09-27T06:43:19;10.10;99.90
34726;DHT22;20951;50.818;4.344;2022-09-27T06:45:48;10.10;99.90
34726;DHT22;20951;50.818;4.344;2022-09-27T06:48:18;10.10;99.90
34726;DHT22;20951;50.818;4.344;2022-09-27T06:50:47;10.20;99.90
34726;DHT22;20951;50.818;4.344;2022-09-27T06:53:16;10.10;99.90
34726;DHT22;20951;50.818;4.344;2022-09-27T06:55:46;10.10;99.90
34726;DHT22;20951;50.818;4.344;2022-09-27T06:58:15;10.20;99.90
34726;DHT22;20951;50.818;4.344;2022-09-27T07:01:02;10.00;99.90
34726;DHT22;20951;50.818;4.344;2022-09-27T07:03:32;10.00;99.90
34726;DHT22;20951;50.818;4.344;2022-09-27T07:06:05;10.00;99.90
34726;DHT22;20951;50.818;4.344;2022-09-27T07:08:34;9.90;99.90
34726;DHT22;20951;50.818;4.344;2022-09-27T07:11:07;10.00;99.90
34726;DHT22;20951;50.818;4.344;2022-09-27T07:13:37;10.10;99.90
34726;DHT22;20951;50.818;4.344;2022-09-27T07:16:11;10.00;99.90
34726;DHT22;20951;50.818;4.344;2022-09-27T07:18:40;10.10;99.90
34726;DHT22;20951;50.818;4.344;2022-09-27T07:21:08;10.10;99.90
34726;DHT22;20951;50.818;4.344;2022-09-27T07:23:38;10.10;99.90
34726;DHT22;20951;50.818;4.344;2022-09-27T07:26:08;10.20;99.90
34726;DHT22;20951;50.818;4.344;2022-09-27T07:28:37;10.10;99.90
34726;DHT22;20951;50.818;4.344;2022-09-27T07:31:08;10.20;99.90
34726;DHT22;20951;50.818;4.344;2022-09-27T07:33:37;10.20;99.90
34726;DHT22;20951;50.818;4.344;2022-09-27T07:36:09;10.20;99.90
34726;DHT22;20951;50.818;4.344;2022-09-27T07:38:39;10.20;99.90
34726;DHT22;20951;50.818;4.344;2022-09-27T07:41:13;10.20;99.90
34726;DHT22;20951;50.818;4.344;2022-09-27T07:43:42;10.20;99.90
34726;DHT22;20951;50.818;4.344;2022-09-27T07:46:14;10.20;99.90
34726;DHT22;20951;50.818;4.344;2022-09-27T07:48:43;10.30;99.90
34726;DHT22;20951;50.818;4.344;2022-09-27T07:51:13;10.20;99.90
34726;DHT22;20951;50.818;4.344;2022-09-27T07:53:42;10.20;99.90
34726;DHT22;20951;50.818;4.344;2022-09-27T07:56:12;10.30;99.90
34726;DHT22;20951;50.818;4.344;2022-09-27T07:58:42;10.30;99.90
34726;DHT22;20951;50.818;4.344;2022-09-27T08:01:11;10.30;99.90
34726;DHT22;20951;50.818;4.344;2022-09-27T08:03:41;10.20;99.90
34726;DHT22;20951;50.818;4.344;2022-09-27T08:06:11;10.20;99.90
34726;DHT22;20951;50.818;4.344;2022-09-27T08:08:41;10.20;99.90
34726;DHT22;20951;50.818;4.344;2022-09-27T08:11:15;10.10;99.90
34726;DHT22;20951;50.818;4.344;2022-09-27T08:13:44;10.30;99.90
34726;DHT22;20951;50.818;4.344;2022-09-27T08:16:14;10.50;99.90
34726;DHT22;20951;50.818;4.344;2022-09-27T08:18:40;10.60;99.90
34726;DHT22;20951;50.818;4.344;2022-09-27T08:21:06;10.90;99.90
34726;DHT22;20951;50.818;4.344;2022-09-27T08:23:32;10.80;99.90
34726;DHT22;20951;50.818;4.344;2022-09-27T08:25:58;11.10;99.90
34726;DHT22;20951;50.818;4.344;2022-09-27T08:28:25;11.00;99.90
34726;DHT22;20951;50.818;4.344;2022-09-27T08:30:51;11.10;99.90
34726;DHT22;20951;50.818;4.344;2022-09-27T08:33:18;11.30;99.90
34726;DHT22;20951;50.818;4.344;2022-09-27T08:35:44;10.90;99.90
34726;DHT22;20951;50.818;4.344;2022-09-27T08:38:10;11.00;99.90
34726;DHT22;20951;50.818;4.344;2022-09-27T08:40:49;11.00;99.90
34726;DHT22;20951;50.818;4.344;2022-09-27T08:46:38;10.80;99.90
34726;DHT22;20951;50.818;4.344;2022-09-27T08:48:48;11.00;99.90
34726;DHT22;20951;50.818;4.344;2022-09-27T08:51:16;10.70;99.90
34726;DHT22;20951;50.818;4.344;2022-09-27T08:54:13;10.60;99.90
34726;DHT22;20951;50.818;4.344;2022-09-27T08:56:40;10.60;99.90
34726;DHT22;20951;50.818;4.344;2022-09-27T08:59:17;10.70;99.90
34726;DHT22;20951;50.818;4.344;2022-09-27T09:01:47;10.70;99.90
34726;DHT22;20951;50.818;4.344;2022-09-27T09:04:23;10.70;99.90
34726;DHT22;20951;50.818;4.344;2022-09-27T09:07:04;10.70;99.90
34726;DHT22;20951;50.818;4.344;2022-09-27T09:10:05;10.60;99.90
34726;DHT22;20951;50.818;4.344;2022-09-27T09:13:00;10.40;99.90
34726;DHT22;20951;50.818;4.344;2022-09-27T09:15:49;10.30;99.90
34726;DHT22;20951;50.818;4.344;2022-09-27T09:21:22;10.40;99.90
34726;DHT22;20951;50.818;4.344;2022-09-27T09:26:34;10.30;99.90
34726;DHT22;20951;50.818;4.344;2022-09-27T09:34:48;10.30;99.90
34726;DHT22;20951;50.818;4.344;2022-09-27T09:37:37;10.60;99.90
34726;DHT22;20951;50.818;4.344;2022-09-27T09:40:21;10.90;99.90
34726;DHT22;20951;50.818;4.344;2022-09-27T09:43:14;11.20;99.90
34726;DHT22;20951;50.818;4.344;2022-09-27T09:45:48;11.00;99.90
34726;DHT22;20951;50.818;4.344;2022-09-27T09:48:29;11.20;99.90
34726;DHT22;20951;50.818;4.344;2022-09-27T09:50:59;11.40;99.90
34726;DHT22;20951;50.818;4.344;2022-09-27T09:53:44;11.50;99.90
34726;DHT22;20951;50.818;4.344;2022-09-27T09:56:19;11.40;99.90
34726;DHT22;20951;50.818;4.344;2022-09-27T09:58:53;11.30;99.90
34726;DHT22;20951;50.818;4.344;2022-09-27T10:01:26;11.40;99.90
34726;DHT22;20951;50.818;4.344;2022-09-27T10:03:54;11.80;99.90
34726;DHT22;20951;50.818;4.344;2022-09-27T10:06:23;12.30;99.90
34726;DHT22;20951;50.818;4.344;2022-09-27T10:08:52;12.60;99.90
34726;DHT22;20951;50.818;4.344;2022-09-27T10:11:27;12.70;99.90
34726;DHT22;20951;50.818;4.344;2022-09-27T10:13:59;12.70;99.90
34726;DHT22;20951;50.818;4.344;2022-09-27T10:16:29;13.20;99.90
34726;DHT22;20951;50.818;4.344;2022-09-27T10:19:04;13.10;99.90
34726;DHT22;20951;50.818;4.344;2022-09-27T10:21:33;13.60;99.90
34726;DHT22;20951;50.818;4.344;2022-09-27T10:26:39;13.50;99.90
34726;DHT22;20951;50.818;4.344;2022-09-27T10:29:28;13.20;99.90
34726;DHT22;20951;50.818;4.344;2022-09-27T10:31:58;13.40;99.90
34726;DHT22;20951;50.818;4.344;2022-09-27T10:34:36;13.10;99.90
34726;DHT22;20951;50.818;4.344;2022-09-27T10:39:42;13.10;99.90
34726;DHT22;20951;50.818;4.344;2022-09-27T10:42:32;13.20;99.90
34726;DHT22;20951;50.818;4.344;2022-09-27T10:45:32;13.10;99.90
34726;DHT22;20951;50.818;4.344;2022-09-27T10:48:01;13.30;99.90
34726;DHT22;20951;50.818;4.344;2022-09-27T10:50:31;13.50;99.90
34726;DHT22;20951;50.818;4.344;2022-09-27T10:53:16;13.70;99.90
34726;DHT22;20951;50.818;4.344;2022-09-27T10:55:50;13.50;99.90
34726;DHT22;20951;50.818;4.344;2022-09-27T10:58:33;13.30;99.90
34726;DHT22;20951;50.818;4.344;2022-09-27T11:01:06;13.10;99.90
34726;DHT22;20951;50.818;4.344;2022-09-27T11:03:38;13.30;99.90
34726;DHT22;20951;50.818;4.344;2022-09-27T11:08:53;13.30;99.90
34726;DHT22;20951;50.818;4.344;2022-09-27T11:11:27;13.20;99.90
34726;DHT22;20951;50.818;4.344;2022-09-27T11:14:05;13.20;99.90
34726;DHT22;20951;50.818;4.344;2022-09-27T11:28:44;13.20;99.90
34726;DHT22;20951;50.818;4.344;2022-09-27T11:31:47;13.20;99.90
34726;DHT22;20951;50.818;4.344;2022-09-27T11:34:33;13.50;99.90
34726;DHT22;20951;50.818;4.344;2022-09-27T11:37:21;13.60;99.90
34726;DHT22;20951;50.818;4.344;2022-09-27T11:40:14;14.00;99.90
34726;DHT22;20951;50.818;4.344;2022-09-27T11:45:52;13.90;99.90
34726;DHT22;20951;50.818;4.344;2022-09-27T11:48:43;13.60;99.90
34726;DHT22;20951;50.818;4.344;2022-09-27T11:57:00;13.30;99.90
34726;DHT22;20951;50.818;4.344;2022-09-27T12:10:41;12.10;99.90
34726;DHT22;20951;50.818;4.344;2022-09-27T12:13:13;12.10;99.90
34726;DHT22;20951;50.818;4.344;2022-09-27T12:15:44;12.60;99.90
34726;DHT22;20951;50.818;4.344;2022-09-27T12:18:36;12.90;99.90
34726;DHT22;20951;50.818;4.344;2022-09-27T12:21:07;13.60;99.90
34726;DHT22;20951;50.818;4.344;2022-09-27T12:23:44;14.80;99.90
34726;DHT22;20951;50.818;4.344;2022-09-27T12:26:40;16.10;99.90
34726;DHT22;20951;50.818;4.344;2022-09-27T12:29:16;18.60;99.90
34726;DHT22;20951;50.818;4.344;2022-09-27T12:37:34;18.80;99.90
34726;DHT22;20951;50.818;4.344;2022-09-27T12:42:52;17.30;99.90
34726;DHT22;20951;50.818;4.344;2022-09-27T12:51:37;15.90;99.90
34726;DHT22;20951;50.818;4.344;2022-09-27T12:54:19;15.10;99.90
34726;DHT22;20951;50.818;4.344;2022-09-27T13:00:22;14.10;99.90
34726;DHT22;20951;50.818;4.344;2022-09-27T13:06:48;12.70;99.90
34726;DHT22;20951;50.818;4.344;2022-09-27T13:09:33;12.70;99.90
34726;DHT22;20951;50.818;4.344;2022-09-27T13:12:26;12.90;99.90
34726;DHT22;20951;50.818;4.344;2022-09-27T13:17:52;13.00;99.90
34726;DHT22;20951;50.818;4.344;2022-09-27T13:25:58;14.20;99.90
34726;DHT22;20951;50.818;4.344;2022-09-27T13:31:06;14.40;99.90
34726;DHT22;20951;50.818;4.344;2022-09-27T13:39:13;13.90;99.90
34726;DHT22;20951;50.818;4.344;2022-09-27T13:50:25;14.00;99.90
34726;DHT22;20951;50.818;4.344;2022-09-27T13:53:07;13.80;99.90
34726;DHT22;20951;50.818;4.344;2022-09-27T13:55:47;13.70;99.90
34726;DHT22;20951;50.818;4.344;2022-09-27T13:58:28;13.90;99.90
34726;DHT22;20951;50.818;4.344;2022-09-27T14:01:06;14.40;99.90
34726;DHT22;20951;50.818;4.344;2022-09-27T14:03:37;15.00;99.90
34726;DHT22;20951;50.818;4.344;2022-09-27T14:06:17;16.00;99.90
34726;DHT22;20951;50.818;4.344;2022-09-27T14:08:52;17.00;99.90
34726;DHT22;20951;50.818;4.344;2022-09-27T14:11:29;18.10;99.90
34726;DHT22;20951;50.818;4.344;2022-09-27T14:14:00;18.20;99.90
34726;DHT22;20951;50.818;4.344;2022-09-27T14:16:33;18.30;99.90
34726;DHT22;20951;50.818;4.344;2022-09-27T14:19:02;18.50;99.90
34726;DHT22;20951;50.818;4.344;2022-09-27T14:21:35;18.60;99.90
34726;DHT22;20951;50.818;4.344;2022-09-27T14:24:19;18.00;99.90
34726;DHT22;20951;50.818;4.344;2022-09-27T14:26:49;18.30;99.90
34726;DHT22;20951;50.818;4.344;2022-09-27T14:29:19;18.50;99.90
34726;DHT22;20951;50.818;4.344;2022-09-27T14:32:03;17.50;99.90
34726;DHT22;20951;50.818;4.344;2022-09-27T14:34:32;17.10;99.90
34726;DHT22;20951;50.818;4.344;2022-09-27T14:37:02;16.40;99.90
34726;DHT22;20951;50.818;4.344;2022-09-27T14:40:06;16.40;99.90
34726;DHT22;20951;50.818;4.344;2022-09-27T14:42:45;16.10;99.90
34726;DHT22;20951;50.818;4.344;2022-09-27T14:45:30;15.60;99.90
34726;DHT22;20951;50.818;4.344;2022-09-27T14:48:04;15.20;99.90
34726;DHT22;20951;50.818;4.344;2022-09-27T14:51:38;14.90;99.90
34726;DHT22;20951;50.818;4.344;2022-09-27T14:53:47;14.20;99.90
34726;DHT22;20951;50.818;4.344;2022-09-27T14:56:19;13.40;99.90
34726;DHT22;20951;50.818;4.344;2022-09-27T14:58:55;13.00;99.90
34726;DHT22;20951;50.818;4.344;2022-09-27T15:01:28;12.90;99.90
34726;DHT22;20951;50.818;4.344;2022-09-27T15:04:06;12.90;99.90
34726;DHT22;20951;50.818;4.344;2022-09-27T15:06:35;13.00;99.90
34726;DHT22;20951;50.818;4.344;2022-09-27T15:09:06;12.90;99.90
34726;DHT22;20951;50.818;4.344;2022-09-27T15:11:38;12.80;99.90
34726;DHT22;20951;50.818;4.344;2022-09-27T15:14:13;12.80;99.90
34726;DHT22;20951;50.818;4.344;2022-09-27T15:16:45;12.90;99.90
34726;DHT22;20951;50.818;4.344;2022-09-27T15:19:22;12.80;99.90
34726;DHT22;20951;50.818;4.344;2022-09-27T15:21:52;12.70;99.90
34726;DHT22;20951;50.818;4.344;2022-09-27T15:24:51;13.30;99.90
34726;DHT22;20951;50.818;4.344;2022-09-27T15:27:23;14.30;99.90
34726;DHT22;20951;50.818;4.344;2022-09-27T15:29:56;15.10;99.90
34726;DHT22;20951;50.818;4.344;2022-09-27T15:32:27;15.80;99.90
34726;DHT22;20951;50.818;4.344;2022-09-27T15:34:56;16.30;99.90
34726;DHT22;20951;50.818;4.344;2022-09-27T15:37:37;17.00;99.90
34726;DHT22;20951;50.818;4.344;2022-09-27T15:43:00;16.50;99.90
34726;DHT22;20951;50.818;4.344;2022-09-27T15:45:33;16.20;99.90
34726;DHT22;20951;50.818;4.344;2022-09-27T15:48:16;16.70;99.90
34726;DHT22;20951;50.818;4.344;2022-09-27T15:50:46;16.70;99.90
34726;DHT22;20951;50.818;4.344;2022-09-27T15:56:04;16.10;99.90
34726;DHT22;20951;50.818;4.344;2022-09-27T15:58:37;15.40;99.90
34726;DHT22;20951;50.818;4.344;2022-09-27T16:01:13;15.20;99.90
34726;DHT22;20951;50.818;4.344;2022-09-27T16:03:43;15.20;99.90
34726;DHT22;20951;50.818;4.344;2022-09-27T16:06:13;15.10;99.90
34726;DHT22;20951;50.818;4.344;2022-09-27T16:08:41;14.80;99.90
34726;DHT22;20951;50.818;4.344;2022-09-27T16:11:11;14.80;99.90
34726;DHT22;20951;50.818;4.344;2022-09-27T16:13:40;15.00;99.90
34726;DHT22;20951;50.818;4.344;2022-09-27T16:16:16;14.80;99.90
34726;DHT22;20951;50.818;4.344;2022-09-27T16:18:46;14.90;99.90
34726;DHT22;20951;50.818;4.344;2022-09-27T16:21:15;14.90;99.90
34726;DHT22;20951;50.818;4.344;2022-09-27T16:23:45;14.90;99.90
34726;DHT22;20951;50.818;4.344;2022-09-27T16:26:14;14.80;99.90
34726;DHT22;20951;50.818;4.344;2022-09-27T16:28:45;14.80;99.90
34726;DHT22;20951;50.818;4.344;2022-09-27T16:31:16;14.90;99.90
34726;DHT22;20951;50.818;4.344;2022-09-27T16:33:47;14.90;99.90
34726;DHT22;20951;50.818;4.344;2022-09-27T16:36:16;14.80;99.90
34726;DHT22;20951;50.818;4.344;2022-09-27T16:38:52;14.80;99.90
34726;DHT22;20951;50.818;4.344;2022-09-27T16:41:22;14.70;99.90
34726;DHT22;20951;50.818;4.344;2022-09-27T16:43:51;14.40;99.90
34726;DHT22;20951;50.818;4.344;2022-09-27T16:46:21;14.30;99.90
34726;DHT22;20951;50.818;4.344;2022-09-27T16:48:49;14.10;99.90
34726;DHT22;20951;50.818;4.344;2022-09-27T16:51:20;14.20;99.90
34726;DHT22;20951;50.818;4.344;2022-09-27T16:54:05;14.10;99.90
34726;DHT22;20951;50.818;4.344;2022-09-27T16:56:33;14.10;99.90
34726;DHT22;20951;50.818;4.344;2022-09-27T16:59:02;14.10;99.90
34726;DHT22;20951;50.818;4.344;2022-09-27T17:01:32;14.10;99.90
34726;DHT22;20951;50.818;4.344;2022-09-27T17:03:59;14.10;99.90
34726;DHT22;20951;50.818;4.344;2022-09-27T17:06:26;14.00;99.90
34726;DHT22;20951;50.818;4.344;2022-09-27T17:08:56;13.80;99.90
34726;DHT22;20951;50.818;4.344;2022-09-27T17:11:22;13.80;99.90
34726;DHT22;20951;50.818;4.344;2022-09-27T17:13:53;13.80;99.90
34726;DHT22;20951;50.818;4.344;2022-09-27T17:16:20;13.70;99.90
34726;DHT22;20951;50.818;4.344;2022-09-27T17:18:46;13.70;99.90
34726;DHT22;20951;50.818;4.344;2022-09-27T17:21:12;13.70;99.90
34726;DHT22;20951;50.818;4.344;2022-09-27T17:23:39;13.70;99.90
34726;DHT22;20951;50.818;4.344;2022-09-27T17:26:17;13.70;99.90
34726;DHT22;20951;50.818;4.344;2022-09-27T17:28:44;13.70;99.90
34726;DHT22;20951;50.818;4.344;2022-09-27T17:31:16;13.80;99.90
34726;DHT22;20951;50.818;4.344;2022-09-27T17:33:45;13.70;99.90
34726;DHT22;20951;50.818;4.344;2022-09-27T17:36:18;13.70;99.90
34726;DHT22;20951;50.818;4.344;2022-09-27T17:38:46;13.70;99.90
34726;DHT22;20951;50.818;4.344;2022-09-27T17:41:15;13.70;99.90
34726;DHT22;20951;50.818;4.344;2022-09-27T17:43:43;13.70;99.90
34726;DHT22;20951;50.818;4.344;2022-09-27T17:46:19;13.70;99.90
34726;DHT22;20951;50.818;4.344;2022-09-27T17:48:46;13.70;99.90
34726;DHT22;20951;50.818;4.344;2022-09-27T17:51:34;13.50;99.90
34726;DHT22;20951;50.818;4.344;2022-09-27T17:54:00;13.30;99.90
34726;DHT22;20951;50.818;4.344;2022-09-27T17:56:26;13.00;99.90
34726;DHT22;20951;50.818;4.344;2022-09-27T17:58:54;12.90;99.90
34726;DHT22;20951;50.818;4.344;2022-09-27T18:01:22;12.90;99.90
34726;DHT22;20951;50.818;4.344;2022-09-27T18:03:52;12.80;99.90
34726;DHT22;20951;50.818;4.344;2022-09-27T18:06:19;12.70;99.90
34726;DHT22;20951;50.818;4.344;2022-09-27T18:08:45;12.60;99.90
34726;DHT22;20951;50.818;4.344;2022-09-27T18:11:13;12.50;99.90
34726;DHT22;20951;50.818;4.344;2022-09-27T18:13:41;12.30;99.90
34726;DHT22;20951;50.818;4.344;2022-09-27T18:16:15;12.20;99.90
34726;DHT22;20951;50.818;4.344;2022-09-27T18:18:42;12.00;99.90
34726;DHT22;20951;50.818;4.344;2022-09-27T18:21:11;11.90;99.90
34726;DHT22;20951;50.818;4.344;2022-09-27T18:23:41;11.90;99.90
34726;DHT22;20951;50.818;4.344;2022-09-27T18:26:08;11.90;99.90
34726;DHT22;20951;50.818;4.344;2022-09-27T18:28:36;11.70;99.90
34726;DHT22;20951;50.818;4.344;2022-09-27T18:31:10;11.50;99.90
34726;DHT22;20951;50.818;4.344;2022-09-27T18:33:37;11.40;99.90
34726;DHT22;20951;50.818;4.344;2022-09-27T18:38:38;11.20;99.90
34726;DHT22;20951;50.818;4.344;2022-09-27T18:41:09;11.30;99.90
34726;DHT22;20951;50.818;4.344;2022-09-27T18:43:38;11.40;99.90